sensor_id;sensor_type;location;lat;lon;timestamp;temperature;humidity
71206;SHT31;58935;54.498;18.544;2023-05-07T00:02:05;7.80;69.64
71206;SHT31;58935;54.498;18.544;2023-05-07T00:04:32;7.81;69.38
71206;SHT31;58935;54.498;18.544;2023-05-07T00:07:02;7.84;69.29
71206;SHT31;58935;54.498;18.544;2023-05-07T00:09:28;7.81;69.25
71206;SHT31;58935;54.498;18.544;2023-05-07T00:11:53;7.81;69.12
71206;SHT31;58935;54.498;18.544;2023-05-07T00:14:19;7.81;69.01
71206;SHT31;58935;54.498;18.544;2023-05-07T00:16:45;7.83;68.76
71206;SHT31;58935;54.498;18.544;2023-05-07T00:19:10;7.83;68.71
71206;SHT31;58935;54.498;18.544;2023-05-07T00:21:36;7.81;68.70
71206;SHT31;58935;54.498;18.544;2023-05-07T00:24:02;7.80;68.62
71206;SHT31;58935;54.498;18.544;2023-05-07T00:26:28;7.79;68.50
71206;SHT31;58935;54.498;18.544;2023-05-07T00:28:53;7.79;68.36
71206;SHT31;58935;54.498;18.544;2023-05-07T00:31:19;7.77;68.37
71206;SHT31;58935;54.498;18.544;2023-05-07T00:33:44;7.76;68.36
71206;SHT31;58935;54.498;18.544;2023-05-07T00:36:10;7.75;68.29
71206;SHT31;58935;54.498;18.544;2023-05-07T00:38:35;7.74;68.28
71206;SHT31;58935;54.498;18.544;2023-05-07T00:41:01;7.71;68.19
71206;SHT31;58935;54.498;18.544;2023-05-07T00:43:27;7.69;68.12
71206;SHT31;58935;54.498;18.544;2023-05-07T00:45:53;7.66;68.11
71206;SHT31;58935;54.498;18.544;2023-05-07T00:48:19;7.64;68.12
71206;SHT31;58935;54.498;18.544;2023-05-07T00:50:46;7.63;68.18
71206;SHT31;58935;54.498;18.544;2023-05-07T00:53:12;7.57;68.23
71206;SHT31;58935;54.498;18.544;2023-05-07T00:55:39;7.53;68.23
71206;SHT31;58935;54.498;18.544;2023-05-07T00:58:05;7.51;68.20
71206;SHT31;58935;54.498;18.544;2023-05-07T01:00:31;7.49;68.26
71206;SHT31;58935;54.498;18.544;2023-05-07T01:02:57;7.47;68.26
71206;SHT31;58935;54.498;18.544;2023-05-07T01:05:23;7.46;68.18
71206;SHT31;58935;54.498;18.544;2023-05-07T01:07:51;7.45;68.18
71206;SHT31;58935;54.498;18.544;2023-05-07T01:10:19;7.43;68.13
71206;SHT31;58935;54.498;18.544;2023-05-07T01:12:46;7.41;68.10
71206;SHT31;58935;54.498;18.544;2023-05-07T01:15:15;7.40;68.12
71206;SHT31;58935;54.498;18.544;2023-05-07T01:17:42;7.36;68.19
71206;SHT31;58935;54.498;18.544;2023-05-07T01:20:09;7.35;68.14
71206;SHT31;58935;54.498;18.544;2023-05-07T01:22:36;7.35;68.10
71206;SHT31;58935;54.498;18.544;2023-05-07T01:25:04;7.33;68.10
71206;SHT31;58935;54.498;18.544;2023-05-07T01:27:32;7.33;68.02
71206;SHT31;58935;54.498;18.544;2023-05-07T01:29:59;7.31;68.06
71206;SHT31;58935;54.498;18.544;2023-05-07T01:32:43;7.31;68.09
71206;SHT31;58935;54.498;18.544;2023-05-07T01:35:18;7.29;68.01
71206;SHT31;58935;54.498;18.544;2023-05-07T01:37:47;7.28;68.09
71206;SHT31;58935;54.498;18.544;2023-05-07T01:40:14;7.25;68.15
71206;SHT31;58935;54.498;18.544;2023-05-07T01:42:41;7.22;68.17
71206;SHT31;58935;54.498;18.544;2023-05-07T01:45:08;7.20;68.25
71206;SHT31;58935;54.498;18.544;2023-05-07T01:47:36;7.17;68.24
71206;SHT31;58935;54.498;18.544;2023-05-07T01:50:05;7.13;68.28
71206;SHT31;58935;54.498;18.544;2023-05-07T01:52:33;7.08;68.36
71206;SHT31;58935;54.498;18.544;2023-05-07T01:55:00;7.04;68.45
71206;SHT31;58935;54.498;18.544;2023-05-07T01:57:25;6.98;68.50
71206;SHT31;58935;54.498;18.544;2023-05-07T01:59:50;6.93;68.66
71206;SHT31;58935;54.498;18.544;2023-05-07T02:02:16;6.91;68.88
71206;SHT31;58935;54.498;18.544;2023-05-07T02:04:41;6.92;68.96
71206;SHT31;58935;54.498;18.544;2023-05-07T02:07:07;6.93;68.98
71206;SHT31;58935;54.498;18.544;2023-05-07T02:09:32;6.92;68.94
71206;SHT31;58935;54.498;18.544;2023-05-07T02:11:58;6.90;68.93
71206;SHT31;58935;54.498;18.544;2023-05-07T02:14:23;6.86;68.84
71206;SHT31;58935;54.498;18.544;2023-05-07T02:16:49;6.83;68.86
71206;SHT31;58935;54.498;18.544;2023-05-07T02:22:38;6.76;68.98
71206;SHT31;58935;54.498;18.544;2023-05-07T02:25:03;6.74;69.02
71206;SHT31;58935;54.498;18.544;2023-05-07T02:27:29;6.72;69.13
71206;SHT31;58935;54.498;18.544;2023-05-07T02:29:55;6.70;69.24
71206;SHT31;58935;54.498;18.544;2023-05-07T02:32:20;6.68;69.28
71206;SHT31;58935;54.498;18.544;2023-05-07T02:34:49;6.63;69.51
71206;SHT31;58935;54.498;18.544;2023-05-07T02:37:16;6.59;69.65
71206;SHT31;58935;54.498;18.544;2023-05-07T02:39:41;6.54;69.96
71206;SHT31;58935;54.498;18.544;2023-05-07T02:42:06;6.52;70.03
71206;SHT31;58935;54.498;18.544;2023-05-07T02:44:32;6.52;69.85
71206;SHT31;58935;54.498;18.544;2023-05-07T02:46:57;6.52;69.81
71206;SHT31;58935;54.498;18.544;2023-05-07T02:49:23;6.53;69.83
71206;SHT31;58935;54.498;18.544;2023-05-07T02:51:48;6.51;69.80
71206;SHT31;58935;54.498;18.544;2023-05-07T02:54:14;6.49;69.72
71206;SHT31;58935;54.498;18.544;2023-05-07T02:56:39;6.48;69.70
71206;SHT31;58935;54.498;18.544;2023-05-07T02:59:05;6.48;69.66
71206;SHT31;58935;54.498;18.544;2023-05-07T03:01:30;6.47;69.66
71206;SHT31;58935;54.498;18.544;2023-05-07T03:03:55;6.47;69.60
71206;SHT31;58935;54.498;18.544;2023-05-07T03:06:21;6.46;69.64
71206;SHT31;58935;54.498;18.544;2023-05-07T03:08:47;6.44;69.67
71206;SHT31;58935;54.498;18.544;2023-05-07T03:11:12;6.43;69.88
71206;SHT31;58935;54.498;18.544;2023-05-07T03:13:38;6.44;69.92
71206;SHT31;58935;54.498;18.544;2023-05-07T03:16:03;6.45;70.06
71206;SHT31;58935;54.498;18.544;2023-05-07T03:18:29;6.46;70.15
71206;SHT31;58935;54.498;18.544;2023-05-07T03:20:57;6.47;70.20
71206;SHT31;58935;54.498;18.544;2023-05-07T03:23:22;6.48;70.17
71206;SHT31;58935;54.498;18.544;2023-05-07T03:25:47;6.50;70.25
71206;SHT31;58935;54.498;18.544;2023-05-07T03:28:13;6.50;70.34
71206;SHT31;58935;54.498;18.544;2023-05-07T03:30:38;6.53;70.45
71206;SHT31;58935;54.498;18.544;2023-05-07T03:33:04;6.56;70.47
71206;SHT31;58935;54.498;18.544;2023-05-07T03:35:30;6.58;70.51
71206;SHT31;58935;54.498;18.544;2023-05-07T03:37:55;6.62;70.51
71206;SHT31;58935;54.498;18.544;2023-05-07T03:40:21;6.60;70.46
71206;SHT31;58935;54.498;18.544;2023-05-07T03:42:46;6.60;70.58
71206;SHT31;58935;54.498;18.544;2023-05-07T03:45:12;6.63;70.42
71206;SHT31;58935;54.498;18.544;2023-05-07T03:47:37;6.63;70.32
71206;SHT31;58935;54.498;18.544;2023-05-07T03:50:02;6.63;70.24
71206;SHT31;58935;54.498;18.544;2023-05-07T03:52:28;6.63;70.39
71206;SHT31;58935;54.498;18.544;2023-05-07T03:54:54;6.64;70.37
71206;SHT31;58935;54.498;18.544;2023-05-07T03:57:19;6.67;70.36
71206;SHT31;58935;54.498;18.544;2023-05-07T03:59:45;6.70;70.40
71206;SHT31;58935;54.498;18.544;2023-05-07T04:02:11;6.75;70.37
71206;SHT31;58935;54.498;18.544;2023-05-07T04:04:36;6.80;70.32
71206;SHT31;58935;54.498;18.544;2023-05-07T04:07:02;6.87;70.26
71206;SHT31;58935;54.498;18.544;2023-05-07T04:09:28;6.93;70.13
71206;SHT31;58935;54.498;18.544;2023-05-07T04:11:53;6.97;70.06
71206;SHT31;58935;54.498;18.544;2023-05-07T04:14:18;7.03;69.99
71206;SHT31;58935;54.498;18.544;2023-05-07T04:16:44;7.10;69.81
71206;SHT31;58935;54.498;18.544;2023-05-07T04:19:09;7.15;69.71
71206;SHT31;58935;54.498;18.544;2023-05-07T04:21:35;7.23;69.55
71206;SHT31;58935;54.498;18.544;2023-05-07T04:24:02;7.28;69.30
71206;SHT31;58935;54.498;18.544;2023-05-07T04:26:29;7.33;69.30
71206;SHT31;58935;54.498;18.544;2023-05-07T04:28:54;7.41;69.32
71206;SHT31;58935;54.498;18.544;2023-05-07T04:31:20;7.50;69.31
71206;SHT31;58935;54.498;18.544;2023-05-07T04:33:46;7.59;69.19
71206;SHT31;58935;54.498;18.544;2023-05-07T04:36:11;7.69;69.07
71206;SHT31;58935;54.498;18.544;2023-05-07T04:38:37;7.76;68.81
71206;SHT31;58935;54.498;18.544;2023-05-07T04:41:04;7.86;68.68
71206;SHT31;58935;54.498;18.544;2023-05-07T04:43:31;7.95;68.53
71206;SHT31;58935;54.498;18.544;2023-05-07T04:45:57;8.04;68.34
71206;SHT31;58935;54.498;18.544;2023-05-07T04:48:23;8.11;68.08
71206;SHT31;58935;54.498;18.544;2023-05-07T04:50:49;8.19;68.06
71206;SHT31;58935;54.498;18.544;2023-05-07T04:53:16;8.27;68.09
71206;SHT31;58935;54.498;18.544;2023-05-07T04:55:42;8.36;67.66
71206;SHT31;58935;54.498;18.544;2023-05-07T04:58:09;8.46;67.31
71206;SHT31;58935;54.498;18.544;2023-05-07T05:00:36;8.55;66.19
71206;SHT31;58935;54.498;18.544;2023-05-07T05:03:01;8.64;64.83
71206;SHT31;58935;54.498;18.544;2023-05-07T05:05:27;8.71;63.96
71206;SHT31;58935;54.498;18.544;2023-05-07T05:07:52;8.79;63.44
71206;SHT31;58935;54.498;18.544;2023-05-07T05:10:18;8.85;62.84
71206;SHT31;58935;54.498;18.544;2023-05-07T05:12:43;8.93;62.92
71206;SHT31;58935;54.498;18.544;2023-05-07T05:15:10;9.01;62.52
71206;SHT31;58935;54.498;18.544;2023-05-07T05:17:37;9.06;61.28
71206;SHT31;58935;54.498;18.544;2023-05-07T05:20:04;9.09;61.39
71206;SHT31;58935;54.498;18.544;2023-05-07T05:22:31;9.16;61.81
71206;SHT31;58935;54.498;18.544;2023-05-07T05:24:57;9.23;61.54
71206;SHT31;58935;54.498;18.544;2023-05-07T05:27:23;9.27;60.91
71206;SHT31;58935;54.498;18.544;2023-05-07T05:29:48;9.31;61.31
71206;SHT31;58935;54.498;18.544;2023-05-07T05:32:14;9.37;61.50
71206;SHT31;58935;54.498;18.544;2023-05-07T05:34:39;9.43;61.29
71206;SHT31;58935;54.498;18.544;2023-05-07T05:37:05;9.47;61.34
71206;SHT31;58935;54.498;18.544;2023-05-07T05:39:31;9.46;61.23
71206;SHT31;58935;54.498;18.544;2023-05-07T05:41:56;9.41;61.72
71206;SHT31;58935;54.498;18.544;2023-05-07T05:44:22;9.40;61.89
71206;SHT31;58935;54.498;18.544;2023-05-07T05:46:47;9.38;61.94
71206;SHT31;58935;54.498;18.544;2023-05-07T05:49:14;9.42;62.10
71206;SHT31;58935;54.498;18.544;2023-05-07T05:51:40;9.46;61.56
71206;SHT31;58935;54.498;18.544;2023-05-07T05:54:06;9.51;61.96
71206;SHT31;58935;54.498;18.544;2023-05-07T05:56:31;9.57;62.10
71206;SHT31;58935;54.498;18.544;2023-05-07T05:58:57;9.63;61.71
71206;SHT31;58935;54.498;18.544;2023-05-07T06:01:23;9.65;60.96
71206;SHT31;58935;54.498;18.544;2023-05-07T06:03:49;9.67;61.37
71206;SHT31;58935;54.498;18.544;2023-05-07T06:06:14;9.66;61.04
71206;SHT31;58935;54.498;18.544;2023-05-07T06:08:40;9.63;61.15
71206;SHT31;58935;54.498;18.544;2023-05-07T06:11:07;9.57;60.91
71206;SHT31;58935;54.498;18.544;2023-05-07T06:13:32;9.52;61.20
71206;SHT31;58935;54.498;18.544;2023-05-07T06:15:58;9.47;61.25
71206;SHT31;58935;54.498;18.544;2023-05-07T06:18:23;9.41;61.03
71206;SHT31;58935;54.498;18.544;2023-05-07T06:20:49;9.36;61.15
71206;SHT31;58935;54.498;18.544;2023-05-07T06:23:14;9.36;61.42
71206;SHT31;58935;54.498;18.544;2023-05-07T06:25:40;9.40;61.23
71206;SHT31;58935;54.498;18.544;2023-05-07T06:28:05;9.37;60.67
71206;SHT31;58935;54.498;18.544;2023-05-07T06:30:31;9.36;61.46
71206;SHT31;58935;54.498;18.544;2023-05-07T06:32:56;9.42;61.84
71206;SHT31;58935;54.498;18.544;2023-05-07T06:35:22;9.47;61.60
71206;SHT31;58935;54.498;18.544;2023-05-07T06:37:47;9.51;60.94
71206;SHT31;58935;54.498;18.544;2023-05-07T06:40:12;9.49;60.28
71206;SHT31;58935;54.498;18.544;2023-05-07T06:42:38;9.47;60.62
71206;SHT31;58935;54.498;18.544;2023-05-07T06:45:03;9.52;61.14
71206;SHT31;58935;54.498;18.544;2023-05-07T06:47:30;9.50;60.83
71206;SHT31;58935;54.498;18.544;2023-05-07T06:49:55;9.47;60.85
71206;SHT31;58935;54.498;18.544;2023-05-07T06:52:21;9.48;60.70
71206;SHT31;58935;54.498;18.544;2023-05-07T06:54:46;9.46;60.08
71206;SHT31;58935;54.498;18.544;2023-05-07T06:57:12;9.42;60.23
71206;SHT31;58935;54.498;18.544;2023-05-07T06:59:37;9.39;59.65
71206;SHT31;58935;54.498;18.544;2023-05-07T07:02:03;9.39;59.51
71206;SHT31;58935;54.498;18.544;2023-05-07T07:04:28;9.45;60.10
71206;SHT31;58935;54.498;18.544;2023-05-07T07:06:54;9.50;60.76
71206;SHT31;58935;54.498;18.544;2023-05-07T07:09:20;9.53;61.09
71206;SHT31;58935;54.498;18.544;2023-05-07T07:11:45;9.59;61.28
71206;SHT31;58935;54.498;18.544;2023-05-07T07:14:11;9.65;61.62
71206;SHT31;58935;54.498;18.544;2023-05-07T07:16:36;9.69;60.22
71206;SHT31;58935;54.498;18.544;2023-05-07T07:19:02;9.65;60.51
71206;SHT31;58935;54.498;18.544;2023-05-07T07:21:27;9.60;61.06
71206;SHT31;58935;54.498;18.544;2023-05-07T07:23:53;9.57;60.52
71206;SHT31;58935;54.498;18.544;2023-05-07T07:26:18;9.55;60.81
71206;SHT31;58935;54.498;18.544;2023-05-07T07:28:45;9.55;61.84
71206;SHT31;58935;54.498;18.544;2023-05-07T07:31:11;9.58;61.95
71206;SHT31;58935;54.498;18.544;2023-05-07T07:33:37;9.58;61.89
71206;SHT31;58935;54.498;18.544;2023-05-07T07:36:05;9.59;62.04
71206;SHT31;58935;54.498;18.544;2023-05-07T07:38:32;9.60;61.45
71206;SHT31;58935;54.498;18.544;2023-05-07T07:40:57;9.64;61.04
71206;SHT31;58935;54.498;18.544;2023-05-07T07:43:23;9.68;60.45
71206;SHT31;58935;54.498;18.544;2023-05-07T07:45:49;9.68;60.47
71206;SHT31;58935;54.498;18.544;2023-05-07T07:48:14;9.69;60.26
71206;SHT31;58935;54.498;18.544;2023-05-07T07:50:40;9.70;60.22
71206;SHT31;58935;54.498;18.544;2023-05-07T07:53:05;9.73;60.32
71206;SHT31;58935;54.498;18.544;2023-05-07T07:55:31;9.74;60.16
71206;SHT31;58935;54.498;18.544;2023-05-07T07:57:57;9.74;59.39
71206;SHT31;58935;54.498;18.544;2023-05-07T08:00:22;9.74;59.56
71206;SHT31;58935;54.498;18.544;2023-05-07T08:02:48;9.76;60.66
71206;SHT31;58935;54.498;18.544;2023-05-07T08:05:14;9.80;60.90
71206;SHT31;58935;54.498;18.544;2023-05-07T08:07:40;9.85;60.65
71206;SHT31;58935;54.498;18.544;2023-05-07T08:10:06;9.91;61.03
71206;SHT31;58935;54.498;18.544;2023-05-07T08:12:32;9.95;60.38
71206;SHT31;58935;54.498;18.544;2023-05-07T08:14:57;9.96;60.09
71206;SHT31;58935;54.498;18.544;2023-05-07T08:17:23;9.98;60.48
71206;SHT31;58935;54.498;18.544;2023-05-07T08:19:49;10.00;60.52
71206;SHT31;58935;54.498;18.544;2023-05-07T08:22:15;10.02;60.05
71206;SHT31;58935;54.498;18.544;2023-05-07T08:24:41;10.02;59.74
71206;SHT31;58935;54.498;18.544;2023-05-07T08:27:06;10.01;60.01
71206;SHT31;58935;54.498;18.544;2023-05-07T08:29:32;10.02;59.39
71206;SHT31;58935;54.498;18.544;2023-05-07T08:31:57;10.01;59.11
71206;SHT31;58935;54.498;18.544;2023-05-07T08:34:23;10.01;59.50
71206;SHT31;58935;54.498;18.544;2023-05-07T08:36:48;9.99;58.62
71206;SHT31;58935;54.498;18.544;2023-05-07T08:39:15;9.94;58.41
71206;SHT31;58935;54.498;18.544;2023-05-07T08:41:43;9.95;59.33
71206;SHT31;58935;54.498;18.544;2023-05-07T08:44:12;9.98;59.68
71206;SHT31;58935;54.498;18.544;2023-05-07T08:46:39;9.96;60.41
71206;SHT31;58935;54.498;18.544;2023-05-07T08:49:07;9.95;59.38
71206;SHT31;58935;54.498;18.544;2023-05-07T08:51:33;9.88;57.85
71206;SHT31;58935;54.498;18.544;2023-05-07T08:54:00;9.85;58.59
71206;SHT31;58935;54.498;18.544;2023-05-07T08:56:26;9.84;59.68
71206;SHT31;58935;54.498;18.544;2023-05-07T08:58:52;9.81;58.81
71206;SHT31;58935;54.498;18.544;2023-05-07T09:01:21;9.80;58.26
71206;SHT31;58935;54.498;18.544;2023-05-07T09:03:47;9.83;58.82
71206;SHT31;58935;54.498;18.544;2023-05-07T09:06:15;9.83;59.51
71206;SHT31;58935;54.498;18.544;2023-05-07T09:08:44;9.79;60.64
71206;SHT31;58935;54.498;18.544;2023-05-07T09:11:19;9.77;61.52
71206;SHT31;58935;54.498;18.544;2023-05-07T09:13:47;9.81;61.59
71206;SHT31;58935;54.498;18.544;2023-05-07T09:16:12;9.88;61.60
71206;SHT31;58935;54.498;18.544;2023-05-07T09:18:41;9.94;60.36
71206;SHT31;58935;54.498;18.544;2023-05-07T09:21:10;9.94;61.14
71206;SHT31;58935;54.498;18.544;2023-05-07T09:23:39;9.94;61.05
71206;SHT31;58935;54.498;18.544;2023-05-07T09:26:06;9.93;61.71
71206;SHT31;58935;54.498;18.544;2023-05-07T09:28:37;9.92;61.75
71206;SHT31;58935;54.498;18.544;2023-05-07T09:31:08;9.92;62.29
71206;SHT31;58935;54.498;18.544;2023-05-07T09:33:38;9.97;62.04
71206;SHT31;58935;54.498;18.544;2023-05-07T09:36:07;10.02;62.14
71206;SHT31;58935;54.498;18.544;2023-05-07T09:38:35;10.12;61.25
71206;SHT31;58935;54.498;18.544;2023-05-07T09:41:05;10.17;60.29
71206;SHT31;58935;54.498;18.544;2023-05-07T09:43:34;10.18;58.20
71206;SHT31;58935;54.498;18.544;2023-05-07T09:46:03;10.16;53.90
71206;SHT31;58935;54.498;18.544;2023-05-07T09:48:35;10.23;54.23
71206;SHT31;58935;54.498;18.544;2023-05-07T09:51:06;10.32;53.11
71206;SHT31;58935;54.498;18.544;2023-05-07T09:53:41;10.44;52.69
71206;SHT31;58935;54.498;18.544;2023-05-07T09:56:08;10.49;51.70
71206;SHT31;58935;54.498;18.544;2023-05-07T09:58:36;10.54;50.67
71206;SHT31;58935;54.498;18.544;2023-05-07T10:01:03;10.57;51.55
71206;SHT31;58935;54.498;18.544;2023-05-07T10:03:30;10.62;50.78
71206;SHT31;58935;54.498;18.544;2023-05-07T10:05:58;10.67;51.20
71206;SHT31;58935;54.498;18.544;2023-05-07T10:08:25;10.73;51.05
71206;SHT31;58935;54.498;18.544;2023-05-07T10:10:55;10.80;51.18
71206;SHT31;58935;54.498;18.544;2023-05-07T10:13:21;10.88;50.27
71206;SHT31;58935;54.498;18.544;2023-05-07T10:15:47;10.93;50.41
71206;SHT31;58935;54.498;18.544;2023-05-07T10:18:17;10.94;49.95
71206;SHT31;58935;54.498;18.544;2023-05-07T10:20:47;10.94;51.55
71206;SHT31;58935;54.498;18.544;2023-05-07T10:23:17;10.97;51.61
71206;SHT31;58935;54.498;18.544;2023-05-07T10:25:49;11.03;51.08
71206;SHT31;58935;54.498;18.544;2023-05-07T10:28:15;11.07;53.32
71206;SHT31;58935;54.498;18.544;2023-05-07T10:30:48;11.10;55.02
71206;SHT31;58935;54.498;18.544;2023-05-07T10:33:29;11.13;54.86
71206;SHT31;58935;54.498;18.544;2023-05-07T10:35:58;11.15;54.42
71206;SHT31;58935;54.498;18.544;2023-05-07T10:38:28;11.22;54.10
71206;SHT31;58935;54.498;18.544;2023-05-07T10:40:54;11.27;52.82
71206;SHT31;58935;54.498;18.544;2023-05-07T10:43:20;11.32;52.57
71206;SHT31;58935;54.498;18.544;2023-05-07T10:48:20;11.45;51.29
71206;SHT31;58935;54.498;18.544;2023-05-07T10:50:49;11.51;52.48
71206;SHT31;58935;54.498;18.544;2023-05-07T10:53:37;11.58;52.49
71206;SHT31;58935;54.498;18.544;2023-05-07T10:58:50;11.63;54.50
71206;SHT31;58935;54.498;18.544;2023-05-07T11:01:17;11.72;55.36
71206;SHT31;58935;54.498;18.544;2023-05-07T11:06:39;11.83;56.59
71206;SHT31;58935;54.498;18.544;2023-05-07T11:09:05;11.81;57.73
71206;SHT31;58935;54.498;18.544;2023-05-07T11:14:05;11.80;58.62
71206;SHT31;58935;54.498;18.544;2023-05-07T11:16:31;11.73;58.36
71206;SHT31;58935;54.498;18.544;2023-05-07T11:19:00;11.70;58.42
71206;SHT31;58935;54.498;18.544;2023-05-07T11:23:58;11.76;58.10
71206;SHT31;58935;54.498;18.544;2023-05-07T11:26:26;11.77;57.89
71206;SHT31;58935;54.498;18.544;2023-05-07T11:28:54;11.76;57.89
71206;SHT31;58935;54.498;18.544;2023-05-07T11:31:21;11.77;58.59
71206;SHT31;58935;54.498;18.544;2023-05-07T11:33:53;11.80;59.87
71206;SHT31;58935;54.498;18.544;2023-05-07T11:36:21;11.85;60.47
71206;SHT31;58935;54.498;18.544;2023-05-07T11:38:48;11.88;60.66
71206;SHT31;58935;54.498;18.544;2023-05-07T11:41:15;11.94;59.05
71206;SHT31;58935;54.498;18.544;2023-05-07T11:46:16;11.97;59.37
71206;SHT31;58935;54.498;18.544;2023-05-07T11:48:44;11.97;59.15
71206;SHT31;58935;54.498;18.544;2023-05-07T11:51:10;11.97;59.55
71206;SHT31;58935;54.498;18.544;2023-05-07T11:53:39;12.00;59.07
71206;SHT31;58935;54.498;18.544;2023-05-07T11:56:08;12.02;58.82
71206;SHT31;58935;54.498;18.544;2023-05-07T11:58:36;12.09;60.17
71206;SHT31;58935;54.498;18.544;2023-05-07T12:01:03;12.18;60.41
71206;SHT31;58935;54.498;18.544;2023-05-07T12:03:29;12.27;58.75
71206;SHT31;58935;54.498;18.544;2023-05-07T12:05:55;12.28;57.07
71206;SHT31;58935;54.498;18.544;2023-05-07T12:08:21;12.28;58.38
71206;SHT31;58935;54.498;18.544;2023-05-07T12:10:48;12.39;58.15
71206;SHT31;58935;54.498;18.544;2023-05-07T12:13:19;12.44;57.00
71206;SHT31;58935;54.498;18.544;2023-05-07T12:18:17;12.45;57.44
71206;SHT31;58935;54.498;18.544;2023-05-07T12:20:44;12.56;57.76
71206;SHT31;58935;54.498;18.544;2023-05-07T12:23:11;12.67;57.83
71206;SHT31;58935;54.498;18.544;2023-05-07T12:25:38;12.77;56.69
71206;SHT31;58935;54.498;18.544;2023-05-07T12:28:08;12.78;56.05
71206;SHT31;58935;54.498;18.544;2023-05-07T12:30:40;12.81;56.93
71206;SHT31;58935;54.498;18.544;2023-05-07T12:33:08;12.85;56.69
71206;SHT31;58935;54.498;18.544;2023-05-07T12:35:37;12.84;55.64
71206;SHT31;58935;54.498;18.544;2023-05-07T12:40:36;12.73;55.40
71206;SHT31;58935;54.498;18.544;2023-05-07T12:43:07;12.65;55.27
71206;SHT31;58935;54.498;18.544;2023-05-07T12:45:41;12.61;55.61
71206;SHT31;58935;54.498;18.544;2023-05-07T12:48:09;12.66;56.39
71206;SHT31;58935;54.498;18.544;2023-05-07T12:50:35;12.74;56.51
71206;SHT31;58935;54.498;18.544;2023-05-07T12:53:03;12.85;57.20
71206;SHT31;58935;54.498;18.544;2023-05-07T12:55:31;13.02;57.03
71206;SHT31;58935;54.498;18.544;2023-05-07T12:58:00;13.09;55.64
71206;SHT31;58935;54.498;18.544;2023-05-07T13:03:02;13.07;55.19
71206;SHT31;58935;54.498;18.544;2023-05-07T13:05:28;13.09;54.20
71206;SHT31;58935;54.498;18.544;2023-05-07T13:07:56;13.11;54.18
71206;SHT31;58935;54.498;18.544;2023-05-07T13:10:26;13.16;54.36
71206;SHT31;58935;54.498;18.544;2023-05-07T13:12:54;13.26;54.65
71206;SHT31;58935;54.498;18.544;2023-05-07T13:15:20;13.42;54.23
71206;SHT31;58935;54.498;18.544;2023-05-07T13:17:47;13.57;53.70
71206;SHT31;58935;54.498;18.544;2023-05-07T13:20:12;13.75;53.34
71206;SHT31;58935;54.498;18.544;2023-05-07T13:22:40;13.89;52.01
71206;SHT31;58935;54.498;18.544;2023-05-07T13:25:06;13.95;51.26
71206;SHT31;58935;54.498;18.544;2023-05-07T13:27:33;14.00;51.17
71206;SHT31;58935;54.498;18.544;2023-05-07T13:30:02;14.07;50.02
71206;SHT31;58935;54.498;18.544;2023-05-07T13:32:30;14.08;49.87
71206;SHT31;58935;54.498;18.544;2023-05-07T13:34:58;14.08;49.51
71206;SHT31;58935;54.498;18.544;2023-05-07T13:37:24;14.10;49.94
71206;SHT31;58935;54.498;18.544;2023-05-07T13:39:50;14.15;49.04
71206;SHT31;58935;54.498;18.544;2023-05-07T13:42:16;14.13;47.84
71206;SHT31;58935;54.498;18.544;2023-05-07T13:44:41;14.08;47.54
71206;SHT31;58935;54.498;18.544;2023-05-07T13:47:08;14.07;46.79
71206;SHT31;58935;54.498;18.544;2023-05-07T13:49:36;14.05;45.37
71206;SHT31;58935;54.498;18.544;2023-05-07T13:52:01;13.99;45.00
71206;SHT31;58935;54.498;18.544;2023-05-07T13:54:28;13.91;44.47
71206;SHT31;58935;54.498;18.544;2023-05-07T13:56:53;13.80;44.17
71206;SHT31;58935;54.498;18.544;2023-05-07T13:59:19;13.72;44.32
71206;SHT31;58935;54.498;18.544;2023-05-07T14:01:44;13.62;44.32
71206;SHT31;58935;54.498;18.544;2023-05-07T14:04:10;13.56;44.72
71206;SHT31;58935;54.498;18.544;2023-05-07T14:06:36;13.55;44.23
71206;SHT31;58935;54.498;18.544;2023-05-07T14:09:01;13.49;44.37
71206;SHT31;58935;54.498;18.544;2023-05-07T14:11:29;13.45;44.68
71206;SHT31;58935;54.498;18.544;2023-05-07T14:13:55;13.41;45.55
71206;SHT31;58935;54.498;18.544;2023-05-07T14:16:21;13.41;45.72
71206;SHT31;58935;54.498;18.544;2023-05-07T14:18:47;13.38;45.98
71206;SHT31;58935;54.498;18.544;2023-05-07T14:21:12;13.31;46.38
71206;SHT31;58935;54.498;18.544;2023-05-07T14:23:40;13.25;45.74
71206;SHT31;58935;54.498;18.544;2023-05-07T14:26:05;13.21;46.46
71206;SHT31;58935;54.498;18.544;2023-05-07T14:28:31;13.25;46.87
71206;SHT31;58935;54.498;18.544;2023-05-07T14:30:56;13.31;46.11
71206;SHT31;58935;54.498;18.544;2023-05-07T14:33:22;13.28;46.01
71206;SHT31;58935;54.498;18.544;2023-05-07T14:35:50;13.28;45.38
71206;SHT31;58935;54.498;18.544;2023-05-07T14:38:15;13.26;45.33
71206;SHT31;58935;54.498;18.544;2023-05-07T14:40:41;13.29;45.59
71206;SHT31;58935;54.498;18.544;2023-05-07T14:43:06;13.38;45.69
71206;SHT31;58935;54.498;18.544;2023-05-07T14:45:32;13.50;45.49
71206;SHT31;58935;54.498;18.544;2023-05-07T14:47:57;13.53;44.03
71206;SHT31;58935;54.498;18.544;2023-05-07T14:50:23;13.54;43.93
71206;SHT31;58935;54.498;18.544;2023-05-07T14:52:49;13.57;43.85
71206;SHT31;58935;54.498;18.544;2023-05-07T14:55:17;13.57;43.56
71206;SHT31;58935;54.498;18.544;2023-05-07T14:57:42;13.54;43.38
71206;SHT31;58935;54.498;18.544;2023-05-07T15:00:08;13.58;43.68
71206;SHT31;58935;54.498;18.544;2023-05-07T15:02:34;13.60;43.00
71206;SHT31;58935;54.498;18.544;2023-05-07T15:05:00;13.62;43.55
71206;SHT31;58935;54.498;18.544;2023-05-07T15:07:26;13.71;44.01
71206;SHT31;58935;54.498;18.544;2023-05-07T15:09:52;13.76;42.94
71206;SHT31;58935;54.498;18.544;2023-05-07T15:12:17;13.80;43.03
71206;SHT31;58935;54.498;18.544;2023-05-07T15:14:43;13.93;43.60
71206;SHT31;58935;54.498;18.544;2023-05-07T15:17:08;14.12;43.42
71206;SHT31;58935;54.498;18.544;2023-05-07T15:19:34;14.25;42.32
71206;SHT31;58935;54.498;18.544;2023-05-07T15:22:00;14.37;42.47
71206;SHT31;58935;54.498;18.544;2023-05-07T15:24:28;14.47;41.82
71206;SHT31;58935;54.498;18.544;2023-05-07T15:26:54;14.54;41.99
71206;SHT31;58935;54.498;18.544;2023-05-07T15:29:20;14.53;41.51
71206;SHT31;58935;54.498;18.544;2023-05-07T15:31:46;14.49;42.22
71206;SHT31;58935;54.498;18.544;2023-05-07T15:34:12;14.48;42.66
71206;SHT31;58935;54.498;18.544;2023-05-07T15:36:40;14.47;42.80
71206;SHT31;58935;54.498;18.544;2023-05-07T15:39:06;14.43;43.05
71206;SHT31;58935;54.498;18.544;2023-05-07T15:41:32;14.47;43.60
71206;SHT31;58935;54.498;18.544;2023-05-07T15:43:57;14.52;43.71
71206;SHT31;58935;54.498;18.544;2023-05-07T15:49:51;14.66;44.14
71206;SHT31;58935;54.498;18.544;2023-05-07T15:52:17;14.74;43.85